Time;durP1;ratioP1;P1;durP2;ratioP2;P2;SDS_P1;SDS_P2;PMS_P1;PMS_P2;Temp;Humidity;BMP_temperature;BMP_pressure;BME280_temperature;BME280_humidity;BME280_pressure;Samples;Min_cycle;Max_cycle;Signal;HPM_P1;HPM_P2
2021/01/30 00:02:06;;;;;;;5.70;1.63;;;8.90;99.90;;;;;;5036283;28;20927;-56
2021/01/30 00:04:32;;;;;;;1.70;1.00;;;8.90;99.90;;;;;;5036572;28;20478;-58
2021/01/30 00:06:58;;;;;;;2.70;1.67;;;8.90;99.90;;;;;;5035760;28;20903;-59
2021/01/30 00:09:26;;;;;;;3.50;1.63;;;8.90;99.90;;;;;;5035958;28;20402;-57
2021/01/30 00:11:57;;;;;;;1.30;1.20;;;8.90;99.90;;;;;;5018376;28;20622;-57
2021/01/30 00:14:30;;;;;;;1.90;1.63;;;8.80;99.90;;;;;;5035566;28;20408;-58
2021/01/30 00:16:57;;;;;;;1.90;1.27;;;8.90;99.90;;;;;;5035702;28;20486;-57
2021/01/30 00:19:22;;;;;;;1.90;1.07;;;8.90;99.90;;;;;;5035905;28;20447;-58
2021/01/30 00:21:50;;;;;;;2.30;1.00;;;8.90;99.90;;;;;;5036155;28;20467;-58
2021/01/30 00:24:16;;;;;;;2.10;1.10;;;9.00;99.90;;;;;;5036277;28;20177;-58
2021/01/30 00:26:41;;;;;;;1.00;0.80;;;9.00;99.90;;;;;;5035889;28;20462;-59
2021/01/30 00:29:07;;;;;;;2.90;1.20;;;9.00;99.90;;;;;;5035536;28;20173;-56
2021/01/30 00:31:32;;;;;;;2.20;1.03;;;9.00;99.90;;;;;;5035402;28;20244;-58
2021/01/30 00:33:58;;;;;;;2.33;1.20;;;9.00;99.90;;;;;;5036066;28;20500;-57
2021/01/30 00:36:23;;;;;;;1.50;0.80;;;8.80;99.90;;;;;;5036118;28;20685;-55
2021/01/30 00:38:52;;;;;;;2.00;0.87;;;8.80;99.90;;;;;;5035420;28;20169;-57
2021/01/30 00:41:17;;;;;;;1.00;0.90;;;8.70;99.90;;;;;;5035813;28;20197;-58
2021/01/30 00:43:43;;;;;;;4.50;1.20;;;8.60;99.90;;;;;;5035351;28;20403;-57
2021/01/30 00:46:08;;;;;;;3.10;1.10;;;8.50;99.90;;;;;;5035023;28;20191;-55
2021/01/30 00:48:34;;;;;;;2.00;0.80;;;8.50;99.90;;;;;;5034558;28;20646;-56
2021/01/30 00:50:59;;;;;;;3.07;1.10;;;8.40;99.90;;;;;;5035324;28;20209;-55
2021/01/30 00:53:25;;;;;;;1.63;0.90;;;8.50;99.90;;;;;;5035534;28;20166;-56
2021/01/30 00:55:50;;;;;;;2.17;1.00;;;8.40;99.90;;;;;;5035099;28;20643;-58
2021/01/30 00:58:16;;;;;;;1.00;0.90;;;8.40;99.90;;;;;;5034982;28;20200;-57
2021/01/30 01:00:42;;;;;;;1.83;0.80;;;8.30;99.90;;;;;;5034715;28;20188;-56
2021/01/30 01:03:07;;;;;;;1.00;0.77;;;8.40;99.90;;;;;;5034970;28;20536;-56
2021/01/30 01:05:33;;;;;;;2.80;1.47;;;8.40;99.90;;;;;;5035105;28;20184;-58
2021/01/30 01:07:58;;;;;;;1.93;1.23;;;8.50;99.90;;;;;;5034074;28;20247;-57
2021/01/30 01:10:24;;;;;;;3.27;1.10;;;8.50;99.90;;;;;;5038063;28;20206;-57
2021/01/30 01:12:50;;;;;;;1.77;0.90;;;8.40;99.90;;;;;;5035057;28;20196;-58
2021/01/30 01:15:18;;;;;;;1.87;0.90;;;8.40;99.90;;;;;;5045172;28;20425;-58
2021/01/30 01:17:43;;;;;;;1.40;0.90;;;8.40;99.90;;;;;;5053986;28;20520;-58
2021/01/30 01:20:13;;;;;;;4.20;1.20;;;8.30;99.90;;;;;;5038570;28;20467;-57
2021/01/30 01:22:39;;;;;;;1.10;0.73;;;8.30;99.90;;;;;;5034831;28;20185;-57
2021/01/30 01:25:05;;;;;;;1.67;0.90;;;8.30;99.90;;;;;;5034706;28;20418;-55
2021/01/30 01:27:31;;;;;;;3.63;0.90;;;8.30;99.90;;;;;;5039582;28;20490;-56
2021/01/30 01:29:58;;;;;;;1.37;0.90;;;8.40;99.90;;;;;;5034106;28;20864;-56
2021/01/30 01:32:24;;;;;;;1.67;1.37;;;8.40;99.90;;;;;;5034715;28;20184;-58
2021/01/30 01:34:50;;;;;;;2.20;1.13;;;8.30;99.90;;;;;;5034703;28;20486;-57
2021/01/30 01:37:16;;;;;;;1.37;1.03;;;8.40;99.90;;;;;;5034351;28;20474;-56
2021/01/30 01:39:41;;;;;;;1.60;1.00;;;8.40;99.90;;;;;;5034115;28;20902;-57
2021/01/30 01:42:36;;;;;;;2.00;1.10;;;8.60;99.90;;;;;;5034191;28;20431;-59
2021/01/30 01:45:03;;;;;;;1.40;0.90;;;8.60;99.90;;;;;;5031176;28;20653;-57
2021/01/30 01:47:37;;;;;;;1.60;0.70;;;8.60;99.90;;;;;;5034237;28;20408;-55
2021/01/30 01:50:24;;;;;;;1.43;0.80;;;8.60;99.90;;;;;;5033965;28;20824;-56
2021/01/30 01:52:52;;;;;;;1.27;0.80;;;8.60;99.90;;;;;;5034264;28;20414;-56
2021/01/30 01:55:21;;;;;;;3.07;1.07;;;8.60;99.90;;;;;;5034535;28;20815;-58
2021/01/30 01:57:53;;;;;;;2.07;0.80;;;8.70;99.90;;;;;;5034251;28;20404;-57
2021/01/30 02:00:21;;;;;;;1.10;1.00;;;8.90;99.90;;;;;;5033871;28;20429;-58
2021/01/30 02:02:49;;;;;;;1.10;0.90;;;9.10;99.90;;;;;;5034037;28;20415;-56
2021/01/30 02:05:25;;;;;;;1.23;0.77;;;8.90;99.90;;;;;;5033911;28;20771;-59
2021/01/30 02:07:53;;;;;;;3.43;1.10;;;9.10;99.90;;;;;;5034649;28;20443;-58
2021/01/30 02:10:23;;;;;;;2.10;0.97;;;9.00;99.90;;;;;;5033629;28;21040;-58
2021/01/30 02:12:50;;;;;;;1.43;0.70;;;8.90;99.90;;;;;;5033846;28;20409;-59
2021/01/30 02:15:19;;;;;;;3.43;0.97;;;8.80;99.90;;;;;;5033834;28;20895;-54
2021/01/30 02:18:14;;;;;;;0.90;0.80;;;8.90;99.90;;;;;;5033949;28;20818;-58
2021/01/30 02:21:04;;;;;;;1.03;0.70;;;8.80;99.90;;;;;;5033423;28;20470;-58
2021/01/30 02:23:36;;;;;;;3.40;0.80;;;8.70;99.90;;;;;;5033881;28;20457;-58
2021/01/30 02:26:25;;;;;;;1.13;0.60;;;8.60;99.90;;;;;;5032962;28;20793;-55
2021/01/30 02:29:09;;;;;;;2.53;0.70;;;8.70;99.90;;;;;;5033806;28;20389;-59
2021/01/30 02:32:11;;;;;;;1.40;0.70;;;8.70;99.90;;;;;;5033650;28;20866;-58
2021/01/30 02:34:37;;;;;;;1.17;0.70;;;8.90;99.90;;;;;;5034009;28;20461;-58
2021/01/30 02:37:11;;;;;;;1.20;0.90;;;8.90;99.90;;;;;;5034063;28;20477;-58
2021/01/30 02:39:39;;;;;;;1.07;0.70;;;9.10;99.90;;;;;;5033532;28;20389;-56
2021/01/30 02:42:08;;;;;;;1.87;1.07;;;9.20;99.90;;;;;;5033797;28;20488;-56
2021/01/30 02:44:58;;;;;;;0.80;0.50;;;9.20;99.90;;;;;;5033441;28;20408;-57
2021/01/30 02:47:27;;;;;;;2.03;0.83;;;9.20;99.90;;;;;;5033563;28;20876;-59
2021/01/30 02:50:02;;;;;;;0.80;0.60;;;9.00;99.90;;;;;;5015573;28;20408;-58
2021/01/30 02:52:28;;;;;;;1.40;0.50;;;8.80;99.90;;;;;;5033246;28;20381;-57
2021/01/30 02:54:58;;;;;;;1.33;0.70;;;8.80;99.90;;;;;;5033307;28;20409;-58
2021/01/30 02:57:26;;;;;;;0.60;0.50;;;9.00;99.90;;;;;;5033294;28;20400;-59
2021/01/30 02:59:55;;;;;;;0.80;0.50;;;9.00;99.90;;;;;;5032846;28;20442;-59
2021/01/30 03:02:23;;;;;;;0.70;0.57;;;9.00;99.90;;;;;;5033334;28;20770;-58
2021/01/30 03:04:51;;;;;;;1.30;0.60;;;9.10;99.90;;;;;;5051295;28;20408;-59
2021/01/30 03:07:26;;;;;;;1.50;0.50;;;9.00;99.90;;;;;;5053417;28;20487;-59
2021/01/30 03:10:13;;;;;;;1.00;0.50;;;9.00;99.90;;;;;;5053231;28;20380;-57
2021/01/30 03:13:07;;;;;;;1.67;0.53;;;8.90;99.90;;;;;;5035233;28;20420;-57
2021/01/30 03:15:34;;;;;;;1.40;0.57;;;8.70;99.90;;;;;;5046986;28;20427;-56
2021/01/30 03:18:03;;;;;;;2.07;0.70;;;8.60;99.90;;;;;;5053169;28;20422;-57
2021/01/30 03:20:31;;;;;;;1.00;0.60;;;8.60;99.90;;;;;;5052895;28;20457;-56
2021/01/30 03:23:00;;;;;;;0.70;0.53;;;8.70;99.90;;;;;;5050528;28;20499;-58
2021/01/30 03:25:28;;;;;;;1.00;0.67;;;8.80;99.90;;;;;;5032999;28;20519;-57
2021/01/30 03:27:59;;;;;;;1.17;0.90;;;8.80;99.90;;;;;;5032969;28;20416;-58
2021/01/30 03:30:25;;;;;;;0.80;0.53;;;8.70;99.90;;;;;;5032436;28;20460;-57
2021/01/30 03:32:51;;;;;;;2.47;0.60;;;8.70;99.90;;;;;;5032725;28;20471;-57
2021/01/30 03:35:17;;;;;;;1.47;0.60;;;8.80;99.90;;;;;;5032754;28;20400;-55
2021/01/30 03:37:43;;;;;;;1.00;0.67;;;8.90;99.90;;;;;;5033271;28;20166;-57
2021/01/30 03:40:11;;;;;;;0.80;0.70;;;8.90;99.90;;;;;;5033847;28;21032;-59
2021/01/30 03:42:38;;;;;;;2.20;0.77;;;9.00;99.90;;;;;;5036668;28;20419;-58
2021/01/30 03:45:11;;;;;;;0.80;0.70;;;9.10;99.90;;;;;;5036380;28;20777;-59
2021/01/30 03:47:37;;;;;;;0.70;0.60;;;9.10;99.90;;;;;;5036422;28;20429;-58
2021/01/30 03:50:05;;;;;;;1.47;0.60;;;9.10;99.90;;;;;;5036566;28;20931;-58
2021/01/30 03:52:31;;;;;;;0.70;0.60;;;9.00;99.90;;;;;;5036741;28;20417;-59
2021/01/30 03:54:56;;;;;;;1.27;0.70;;;8.90;99.90;;;;;;5018614;28;20474;-58
2021/01/30 03:57:22;;;;;;;0.67;0.53;;;8.80;99.90;;;;;;5036257;28;20174;-54
2021/01/30 03:59:49;;;;;;;1.13;0.70;;;8.70;99.90;;;;;;5036109;28;20251;-58
2021/01/30 04:02:16;;;;;;;1.63;0.67;;;8.70;99.90;;;;;;5034976;28;20673;-59
2021/01/30 04:04:44;;;;;;;1.37;0.60;;;8.70;99.90;;;;;;5036217;28;20411;-56
2021/01/30 04:07:10;;;;;;;1.17;0.50;;;8.90;99.90;;;;;;5036202;28;20401;-57
2021/01/30 04:09:35;;;;;;;0.80;0.60;;;8.90;99.90;;;;;;5035971;28;20407;-59
2021/01/30 04:12:01;;;;;;;0.70;0.70;;;8.70;99.90;;;;;;5035984;28;20481;-57
2021/01/30 04:14:27;;;;;;;1.20;0.70;;;8.70;99.90;;;;;;5036195;28;20173;-59
2021/01/30 04:16:52;;;;;;;1.37;0.60;;;8.70;99.90;;;;;;5035793;28;20252;-55
2021/01/30 04:19:18;;;;;;;1.10;0.60;;;8.60;99.90;;;;;;5035734;28;20229;-58
2021/01/30 04:21:44;;;;;;;3.97;1.47;;;8.50;99.90;;;;;;5035711;28;20206;-57
2021/01/30 04:24:10;;;;;;;1.63;0.90;;;8.60;99.90;;;;;;5035208;28;20197;-58
2021/01/30 04:26:36;;;;;;;2.03;1.30;;;8.50;99.90;;;;;;5035448;28;20493;-59
2021/01/30 04:29:01;;;;;;;2.90;1.60;;;8.60;99.90;;;;;;5035882;28;20458;-58
2021/01/30 04:31:27;;;;;;;5.03;2.10;;;8.40;99.90;;;;;;5028748;28;20204;-56
2021/01/30 04:33:53;;;;;;;3.30;1.47;;;8.50;99.90;;;;;;5018884;28;20186;-58
2021/01/30 04:36:20;;;;;;;1.60;1.00;;;8.40;99.90;;;;;;5027857;28;20182;-57
2021/01/30 04:38:45;;;;;;;3.47;1.60;;;8.40;99.90;;;;;;5015820;28;20162;-58
2021/01/30 04:41:29;;;;;;;3.67;1.83;;;8.40;99.90;;;;;;5015355;28;20535;-56
2021/01/30 04:44:29;;;;;;;4.37;1.50;;;8.40;99.90;;;;;;5015823;28;20343;-57
2021/01/30 04:47:12;;;;;;;3.93;1.20;;;8.30;99.90;;;;;;4948640;28;20755;-58
2021/01/30 04:49:59;;;;;;;1.53;1.17;;;8.30;99.90;;;;;;5015769;28;20784;-58
2021/01/30 04:52:34;;;;;;;1.40;0.90;;;8.30;99.90;;;;;;5015869;28;20393;-57
2021/01/30 04:55:46;;;;;;;3.03;1.70;;;8.40;99.90;;;;;;5015609;28;20379;-55
2021/01/30 04:58:27;;;;;;;2.40;1.37;;;8.40;99.90;;;;;;5015793;28;20440;-59
2021/01/30 05:01:12;;;;;;;5.30;3.03;;;8.50;99.90;;;;;;5025403;28;20473;-56
2021/01/30 05:03:50;;;;;;;2.40;1.50;;;8.30;99.90;;;;;;5035449;28;20980;-57
2021/01/30 05:06:28;;;;;;;5.93;2.37;;;8.30;99.90;;;;;;5035537;28;20885;-59
2021/01/30 05:09:01;;;;;;;5.80;4.07;;;8.30;99.90;;;;;;5033898;28;20423;-58
2021/01/30 05:11:28;;;;;;;5.00;2.73;;;8.30;99.90;;;;;;5035080;28;20493;-58
2021/01/30 05:14:06;;;;;;;4.37;2.00;;;8.60;99.90;;;;;;5034730;28;20410;-54
2021/01/30 05:16:37;;;;;;;2.30;1.63;;;8.70;99.90;;;;;;5034941;28;20946;-58
2021/01/30 05:19:08;;;;;;;2.83;1.63;;;8.50;99.90;;;;;;5035155;28;20438;-59
2021/01/30 05:21:46;;;;;;;1.70;1.40;;;8.60;99.90;;;;;;5034911;28;20444;-55
2021/01/30 05:24:14;;;;;;;4.77;2.10;;;8.60;99.90;;;;;;5035403;28;20513;-58
2021/01/30 05:26:57;;;;;;;3.17;1.37;;;8.60;99.90;;;;;;5035130;28;20837;-55
2021/01/30 05:29:30;;;;;;;6.83;1.70;;;8.50;99.90;;;;;;5034830;28;20396;-56
2021/01/30 05:32:05;;;;;;;2.83;1.20;;;8.50;99.90;;;;;;5034479;28;20467;-57
2021/01/30 05:34:36;;;;;;;2.60;1.33;;;8.50;99.90;;;;;;5034887;28;20868;-56
2021/01/30 05:37:07;;;;;;;3.77;1.70;;;8.60;99.90;;;;;;5034812;28;20951;-55
2021/01/30 05:40:10;;;;;;;4.17;1.40;;;8.60;99.90;;;;;;5034328;28;20473;-56
2021/01/30 05:43:16;;;;;;;3.67;1.30;;;8.70;99.90;;;;;;5034854;28;20800;-56
2021/01/30 05:45:44;;;;;;;5.43;1.60;;;8.70;99.90;;;;;;4954114;28;20451;-59
2021/01/30 05:48:20;;;;;;;3.10;1.20;;;8.70;99.90;;;;;;5019205;28;20762;-57
2021/01/30 05:51:07;;;;;;;5.37;1.87;;;8.90;99.90;;;;;;5034226;28;20890;-56
2021/01/30 05:53:33;;;;;;;4.90;1.80;;;8.70;99.90;;;;;;5034134;28;20472;-57
2021/01/30 05:55:59;;;;;;;5.30;2.07;;;8.60;99.90;;;;;;5034745;28;20441;-54
2021/01/30 05:58:27;;;;;;;5.23;1.50;;;8.40;99.90;;;;;;5034051;28;20443;-58
2021/01/30 06:01:22;;;;;;;2.83;1.53;;;8.30;99.90;;;;;;5034084;28;20218;-58
2021/01/30 06:04:08;;;;;;;5.00;1.93;;;8.50;99.90;;;;;;5033714;28;20407;-58
2021/01/30 06:06:50;;;;;;;4.80;1.67;;;8.40;99.90;;;;;;5034186;28;20384;-58
2021/01/30 06:09:33;;;;;;;3.40;1.40;;;8.40;99.90;;;;;;5033811;28;20518;-58
2021/01/30 06:12:02;;;;;;;4.80;2.27;;;8.40;99.90;;;;;;5034192;28;20448;-57
2021/01/30 06:14:35;;;;;;;6.20;1.80;;;8.60;99.90;;;;;;5034490;28;20416;-56
2021/01/30 06:17:02;;;;;;;11.20;2.00;;;8.50;99.90;;;;;;5033957;28;20404;-57
2021/01/30 06:19:31;;;;;;;3.53;1.40;;;8.50;99.90;;;;;;5033865;28;20926;-56
2021/01/30 06:22:22;;;;;;;5.70;1.50;;;8.60;99.90;;;;;;5033802;28;20545;-57
2021/01/30 06:24:48;;;;;;;4.70;1.57;;;8.60;99.90;;;;;;5033216;28;20452;-56
2021/01/30 06:27:31;;;;;;;9.07;2.47;;;8.50;99.90;;;;;;5033356;28;20420;-56
2021/01/30 06:30:06;;;;;;;6.10;1.97;;;8.50;99.90;;;;;;5033500;28;20426;-59
2021/01/30 06:32:48;;;;;;;5.10;1.77;;;8.60;99.90;;;;;;5034438;28;20391;-56
2021/01/30 06:35:24;;;;;;;4.07;1.80;;;8.60;99.90;;;;;;5033737;28;20388;-58
2021/01/30 06:37:59;;;;;;;8.53;2.13;;;8.70;99.90;;;;;;5033021;28;20533;-55
2021/01/30 06:40:37;;;;;;;6.20;1.90;;;8.60;99.90;;;;;;5033650;28;20447;-56
2021/01/30 06:43:22;;;;;;;6.60;1.30;;;8.80;99.90;;;;;;5033550;28;20951;-57
2021/01/30 06:45:49;;;;;;;8.03;2.50;;;8.80;99.90;;;;;;5033739;28;20399;-59
2021/01/30 06:48:27;;;;;;;5.70;1.67;;;8.70;99.90;;;;;;5033537;28;20776;-56
2021/01/30 06:50:53;;;;;;;4.70;1.90;;;8.50;99.90;;;;;;5033500;28;20494;-55
2021/01/30 06:53:29;;;;;;;7.47;1.90;;;8.40;99.90;;;;;;5033165;28;20447;-57
2021/01/30 06:56:16;;;;;;;5.23;1.93;;;8.40;99.90;;;;;;5033563;28;20212;-56
2021/01/30 06:58:42;;;;;;;4.40;2.03;;;8.50;99.90;;;;;;5033484;28;20450;-55
2021/01/30 07:01:24;;;;;;;5.50;2.33;;;8.60;99.90;;;;;;5033215;28;20813;-56
2021/01/30 07:04:09;;;;;;;2.77;1.73;;;8.70;99.90;;;;;;5033642;28;20877;-59
2021/01/30 07:07:00;;;;;;;4.57;2.00;;;8.60;99.90;;;;;;5033563;28;20941;-58
2021/01/30 07:10:16;;;;;;;3.47;1.60;;;8.80;99.90;;;;;;5033138;28;20387;-55
2021/01/30 07:12:47;;;;;;;10.23;2.67;;;8.80;99.90;;;;;;4954285;29;20482;-54
2021/01/30 07:15:29;;;;;;;4.63;2.10;;;8.70;99.90;;;;;;4956038;28;20397;-57
2021/01/30 07:18:25;;;;;;;9.10;2.70;;;8.70;99.90;;;;;;5012946;28;20506;-57
2021/01/30 07:21:12;;;;;;;4.47;2.40;;;8.80;99.90;;;;;;5036858;28;20442;-55
2021/01/30 07:23:49;;;;;;;10.60;2.50;;;9.00;99.90;;;;;;5037316;28;20424;-55
2021/01/30 07:26:34;;;;;;;5.40;2.30;;;9.00;99.90;;;;;;5036945;28;20427;-58
2021/01/30 07:29:05;;;;;;;4.30;1.43;;;8.80;99.90;;;;;;5030510;28;20435;-57
2021/01/30 07:31:35;;;;;;;5.27;1.90;;;9.00;99.90;;;;;;5017227;28;20867;-55
2021/01/30 07:34:10;;;;;;;3.37;1.80;;;9.10;99.90;;;;;;5017228;28;20816;-57
2021/01/30 07:36:44;;;;;;;5.33;2.40;;;9.10;99.90;;;;;;5017349;28;20474;-58
2021/01/30 07:39:38;;;;;;;6.53;2.47;;;8.90;99.90;;;;;;5017087;28;20405;-58
2021/01/30 07:42:32;;;;;;;4.80;2.20;;;8.70;99.90;;;;;;5008032;28;20898;-56
2021/01/30 07:45:16;;;;;;;9.97;2.90;;;8.70;99.90;;;;;;5016961;28;20394;-58
2021/01/30 07:48:17;;;;;;;6.70;2.17;;;8.70;99.90;;;;;;5017064;28;20876;-59
2021/01/30 07:50:50;;;;;;;6.30;2.60;;;8.70;99.90;;;;;;5016846;28;20471;-58
2021/01/30 07:53:19;;;;;;;9.00;2.90;;;8.70;99.90;;;;;;5016722;28;20861;-58
2021/01/30 07:56:12;;;;;;;6.27;2.50;;;8.80;99.90;;;;;;5031394;28;20419;-58
2021/01/30 07:58:47;;;;;;;8.67;3.30;;;8.90;99.90;;;;;;5037269;28;20459;-59
2021/01/30 08:01:20;;;;;;;8.77;2.57;;;8.90;99.90;;;;;;5036252;28;20429;-59
2021/01/30 08:04:16;;;;;;;7.20;2.83;;;8.90;99.90;;;;;;5036157;28;20390;-59
2021/01/30 08:06:44;;;;;;;6.00;2.23;;;8.90;99.90;;;;;;5036506;28;20488;-60
2021/01/30 08:09:18;;;;;;;9.70;2.70;;;8.80;99.90;;;;;;5036281;28;20415;-59
2021/01/30 08:12:07;;;;;;;8.37;2.50;;;8.80;99.90;;;;;;5035874;28;20517;-60
2021/01/30 08:15:08;;;;;;;4.17;2.50;;;9.00;99.90;;;;;;5024734;28;20795;-60
2021/01/30 08:17:37;;;;;;;4.63;2.70;;;9.10;99.90;;;;;;5036085;28;20387;-59
2021/01/30 08:20:11;;;;;;;7.47;2.63;;;9.20;99.90;;;;;;5018401;28;20527;-60
2021/01/30 08:23:14;;;;;;;10.10;4.40;;;9.00;99.90;;;;;;5036329;28;20470;-60
2021/01/30 08:25:57;;;;;;;7.17;3.00;;;9.10;99.90;;;;;;5034652;28;20417;-58
2021/01/30 08:28:52;;;;;;;5.70;3.13;;;9.30;99.90;;;;;;5036007;28;20394;-59
2021/01/30 08:31:43;;;;;;;8.90;2.97;;;9.20;99.90;;;;;;4998213;28;20506;-61
2021/01/30 08:34:18;;;;;;;6.47;2.60;;;9.20;99.90;;;;;;5035554;28;20385;-61
2021/01/30 08:36:46;;;;;;;6.33;2.20;;;9.40;99.90;;;;;;5035986;28;20384;-61
2021/01/30 08:39:25;;;;;;;7.70;2.63;;;9.40;99.90;;;;;;5035478;28;20970;-61
2021/01/30 08:41:59;;;;;;;5.10;2.10;;;9.50;99.90;;;;;;5035752;28;20460;-58
2021/01/30 08:44:36;;;;;;;7.43;2.23;;;9.40;99.90;;;;;;5035410;28;20774;-59
2021/01/30 08:47:17;;;;;;;8.63;2.53;;;9.40;99.90;;;;;;5035667;28;20389;-61
2021/01/30 08:49:56;;;;;;;4.60;2.33;;;9.50;99.90;;;;;;5035516;28;20421;-58
2021/01/30 08:52:38;;;;;;;8.23;1.83;;;9.70;99.90;;;;;;5035169;28;20433;-60
2021/01/30 08:55:32;;;;;;;6.63;2.60;;;9.60;99.90;;;;;;5034981;28;20434;-61
2021/01/30 08:57:59;;;;;;;5.13;2.57;;;9.50;99.90;;;;;;5035431;28;20860;-61
2021/01/30 09:00:27;;;;;;;9.77;3.10;;;9.40;99.90;;;;;;5035450;28;20786;-60
2021/01/30 09:02:58;;;;;;;4.70;2.83;;;9.50;99.90;;;;;;5035679;28;20411;-61
2021/01/30 09:05:26;;;;;;;6.67;2.80;;;9.50;99.90;;;;;;5035631;28;20782;-61
2021/01/30 09:07:57;;;;;;;7.77;2.67;;;9.60;99.90;;;;;;5034790;28;20412;-59
2021/01/30 09:10:36;;;;;;;7.97;3.00;;;9.60;99.90;;;;;;5036973;28;20458;-60
2021/01/30 09:13:09;;;;;;;8.07;3.00;;;9.60;99.90;;;;;;5035308;28;20385;-60
2021/01/30 09:15:40;;;;;;;6.40;3.00;;;9.40;99.90;;;;;;5034767;28;20450;-62
2021/01/30 09:18:27;;;;;;;7.03;2.30;;;9.50;99.90;;;;;;5034808;28;20400;-57
2021/01/30 09:21:02;;;;;;;5.83;2.57;;;9.70;99.90;;;;;;5034304;28;20979;-61
2021/01/30 09:23:33;;;;;;;10.43;3.03;;;9.90;99.90;;;;;;5034529;28;20486;-59
2021/01/30 09:26:28;;;;;;;9.67;3.50;;;10.00;99.90;;;;;;5014594;28;20461;-60
2021/01/30 09:28:59;;;;;;;9.73;3.97;;;10.10;99.90;;;;;;4997711;28;20427;-61
2021/01/30 09:31:26;;;;;;;9.33;2.63;;;10.10;99.90;;;;;;5014441;28;20486;-62
2021/01/30 09:34:11;;;;;;;8.10;3.10;;;10.10;99.90;;;;;;5015068;28;20410;-62
2021/01/30 09:36:38;;;;;;;8.00;3.20;;;10.10;99.90;;;;;;5014358;28;20383;-61
2021/01/30 09:39:25;;;;;;;11.03;2.90;;;10.20;99.90;;;;;;5013748;28;20453;-62
2021/01/30 09:41:51;;;;;;;6.70;2.83;;;10.10;99.90;;;;;;5014370;28;20429;-61
2021/01/30 09:44:28;;;;;;;5.07;2.90;;;10.30;99.90;;;;;;5014551;28;20439;-60
2021/01/30 09:46:58;;;;;;;10.90;3.30;;;10.40;99.90;;;;;;5014835;28;20383;-62
2021/01/30 09:49:32;;;;;;;6.77;3.03;;;10.40;99.90;;;;;;5014699;28;20795;-61
2021/01/30 09:52:00;;;;;;;11.63;3.43;;;10.30;99.90;;;;;;5014509;28;20457;-62
2021/01/30 09:54:28;;;;;;;20.23;11.30;;;10.20;99.90;;;;;;5022103;28;20799;-62
2021/01/30 09:57:08;;;;;;;32.73;22.03;;;10.50;99.90;;;;;;5033695;28;20467;-62
2021/01/30 09:59:34;;;;;;;27.70;18.10;;;10.90;99.90;;;;;;5034571;28;20745;-61
2021/01/30 10:02:29;;;;;;;11.03;5.20;;;10.90;99.90;;;;;;5034015;28;20414;-62
2021/01/30 10:05:14;;;;;;;7.30;3.83;;;11.10;99.90;;;;;;5031904;28;20411;-62
2021/01/30 10:07:41;;;;;;;10.23;3.10;;;10.80;99.90;;;;;;5033985;28;20410;-61
2021/01/30 10:10:22;;;;;;;10.43;3.33;;;10.60;99.90;;;;;;5032389;28;20457;-60
2021/01/30 10:12:48;;;;;;;7.67;3.20;;;10.50;99.90;;;;;;5033512;28;20413;-60
2021/01/30 10:15:24;;;;;;;11.50;3.10;;;10.40;99.90;;;;;;5034007;28;20404;-60
2021/01/30 10:17:50;;;;;;;11.13;5.80;;;10.20;99.90;;;;;;5033809;28;20387;-62
2021/01/30 10:20:16;;;;;;;8.67;3.90;;;10.30;99.90;;;;;;5030201;28;20887;-62
2021/01/30 10:22:47;;;;;;;12.73;4.13;;;10.10;99.90;;;;;;5024708;28;20497;-62
2021/01/30 10:25:23;;;;;;;4.93;2.63;;;10.00;99.90;;;;;;5032533;28;20183;-62
2021/01/30 10:27:49;;;;;;;13.17;10.03;;;10.10;99.90;;;;;;5033752;28;20762;-62
2021/01/30 10:30:17;;;;;;;11.40;7.03;;;10.00;99.90;;;;;;5033573;28;20420;-60
2021/01/30 10:32:55;;;;;;;9.37;4.40;;;10.10;99.90;;;;;;5033787;28;20403;-61
2021/01/30 10:35:27;;;;;;;8.20;2.83;;;10.20;99.90;;;;;;5033730;28;20433;-62
2021/01/30 10:38:01;;;;;;;10.33;4.27;;;10.20;99.90;;;;;;5033782;28;20421;-58
2021/01/30 10:40:40;;;;;;;5.80;2.53;;;10.40;99.90;;;;;;5020810;28;20451;-59
2021/01/30 10:43:26;;;;;;;10.73;2.60;;;10.30;99.90;;;;;;5013689;28;20762;-61
2021/01/30 10:45:55;;;;;;;8.37;2.50;;;10.30;99.90;;;;;;5012959;28;20438;-61
2021/01/30 10:48:23;;;;;;;6.70;3.13;;;10.30;99.90;;;;;;5013908;28;20459;-58
2021/01/30 10:50:50;;;;;;;9.73;2.63;;;10.40;99.90;;;;;;5013338;28;20457;-59
2021/01/30 10:53:20;;;;;;;9.23;3.43;;;10.40;99.90;;;;;;5013641;28;20417;-59
2021/01/30 10:55:46;;;;;;;7.43;2.93;;;10.30;99.90;;;;;;5013723;28;20754;-61
2021/01/30 10:58:38;;;;;;;8.07;2.80;;;10.30;99.90;;;;;;5013661;28;20412;-62
2021/01/30 11:01:07;;;;;;;6.63;3.30;;;10.30;99.90;;;;;;5010816;28;20450;-59
2021/01/30 11:03:40;;;;;;;7.20;2.93;;;10.50;99.90;;;;;;5016717;28;20818;-59
2021/01/30 11:06:39;;;;;;;13.10;3.70;;;10.50;99.90;;;;;;5054087;28;20499;-59
2021/01/30 11:09:26;;;;;;;9.27;2.97;;;10.40;99.90;;;;;;5055589;28;20412;-59
2021/01/30 11:12:18;;;;;;;8.93;3.13;;;10.70;99.90;;;;;;5035575;28;20460;-58
2021/01/30 11:14:44;;;;;;;7.10;3.30;;;10.90;99.90;;;;;;5036682;28;20387;-59
2021/01/30 11:17:33;;;;;;;9.27;3.20;;;10.90;99.90;;;;;;5035593;28;20417;-61
2021/01/30 11:20:00;;;;;;;5.10;2.37;;;11.10;99.90;;;;;;5032629;28;20450;-60
2021/01/30 11:22:27;;;;;;;7.30;2.97;;;10.70;99.90;;;;;;5033096;28;20508;-60
2021/01/30 11:25:08;;;;;;;6.43;2.30;;;10.60;99.90;;;;;;5032768;28;20403;-61
2021/01/30 11:27:33;;;;;;;5.43;2.57;;;10.70;99.90;;;;;;5033042;28;20401;-60
2021/01/30 11:30:23;;;;;;;5.87;2.90;;;10.90;99.90;;;;;;5033109;28;20968;-61
2021/01/30 11:32:57;;;;;;;7.10;2.50;;;11.00;99.90;;;;;;5032370;28;20224;-60
2021/01/30 11:35:34;;;;;;;6.77;2.27;;;10.90;99.90;;;;;;5033021;28;20467;-60
2021/01/30 11:38:07;;;;;;;8.90;2.90;;;11.00;99.90;;;;;;5032913;28;20472;-60
2021/01/30 11:40:33;;;;;;;5.00;1.90;;;11.10;99.90;;;;;;5033329;28;20477;-61
2021/01/30 11:42:58;;;;;;;5.37;2.57;;;11.10;99.90;;;;;;5032917;28;20394;-60
2021/01/30 11:45:24;;;;;;;8.10;2.70;;;11.00;99.90;;;;;;5032980;28;20402;-60
2021/01/30 11:47:50;;;;;;;6.93;3.43;;;10.60;99.90;;;;;;5033305;28;20268;-60
2021/01/30 11:50:16;;;;;;;6.03;2.90;;;10.40;99.90;;;;;;5032939;28;20427;-59
2021/01/30 11:52:41;;;;;;;6.20;2.43;;;10.70;99.90;;;;;;5033092;28;20173;-61
2021/01/30 11:55:08;;;;;;;6.23;2.93;;;10.80;99.90;;;;;;5032344;28;20277;-62
2021/01/30 11:57:33;;;;;;;4.00;2.10;;;10.70;99.90;;;;;;5032784;28;20168;-61
2021/01/30 11:59:59;;;;;;;4.30;2.33;;;10.70;99.90;;;;;;5032598;28;20451;-61
2021/01/30 12:02:36;;;;;;;6.27;2.03;;;10.90;99.90;;;;;;5034799;28;20171;-61
2021/01/30 12:05:04;;;;;;;6.07;2.63;;;11.10;99.90;;;;;;5036266;28;20175;-61
2021/01/30 12:07:30;;;;;;;6.30;2.47;;;11.20;99.90;;;;;;5035927;28;20841;-61
2021/01/30 12:09:55;;;;;;;5.57;2.30;;;11.20;99.90;;;;;;5035861;28;20432;-61
2021/01/30 12:12:21;;;;;;;9.03;2.50;;;11.10;99.90;;;;;;5036108;28;20252;-62
2021/01/30 12:14:47;;;;;;;6.40;2.43;;;11.00;99.90;;;;;;5036051;28;20221;-58
2021/01/30 12:17:35;;;;;;;4.03;2.03;;;11.00;99.90;;;;;;5035921;28;20639;-61
2021/01/30 12:20:02;;;;;;;3.17;2.37;;;10.70;99.90;;;;;;5023468;28;20220;-61
2021/01/30 12:22:28;;;;;;;11.53;3.10;;;10.80;99.90;;;;;;5036392;28;20415;-60
2021/01/30 12:24:54;;;;;;;6.37;2.70;;;10.80;99.90;;;;;;5035052;28;20930;-56
2021/01/30 12:27:19;;;;;;;4.33;2.20;;;10.90;99.90;;;;;;5035748;28;20512;-59
2021/01/30 12:29:45;;;;;;;9.23;2.93;;;10.90;99.90;;;;;;5036149;28;20176;-61
2021/01/30 12:32:12;;;;;;;8.10;2.57;;;11.00;99.90;;;;;;5035628;28;20192;-57
2021/01/30 12:34:37;;;;;;;3.90;2.03;;;10.90;99.90;;;;;;5035939;28;20199;-60
2021/01/30 12:37:04;;;;;;;7.50;2.60;;;10.90;99.90;;;;;;5035530;28;20835;-61
2021/01/30 12:39:29;;;;;;;4.50;2.00;;;10.90;99.90;;;;;;5035371;28;20578;-62
2021/01/30 12:41:55;;;;;;;7.33;3.17;;;11.00;99.90;;;;;;5018009;28;20492;-61
2021/01/30 12:44:22;;;;;;;6.30;2.47;;;11.00;99.90;;;;;;5035840;28;20175;-63
2021/01/30 12:46:49;;;;;;;4.27;2.00;;;11.00;99.90;;;;;;5035577;28;20187;-61
2021/01/30 12:49:15;;;;;;;7.80;2.40;;;11.00;99.90;;;;;;5018052;28;20420;-59
2021/01/30 12:51:41;;;;;;;3.00;1.87;;;11.00;99.90;;;;;;5017668;28;20492;-61
2021/01/30 12:54:07;;;;;;;5.40;2.30;;;11.10;99.90;;;;;;5034434;28;20419;-59
2021/01/30 12:56:33;;;;;;;6.30;2.67;;;11.10;99.90;;;;;;5017252;28;20844;-60
2021/01/30 12:58:59;;;;;;;8.23;3.03;;;10.90;99.90;;;;;;5035160;28;20925;-59
2021/01/30 13:01:24;;;;;;;5.93;2.53;;;10.80;99.90;;;;;;5017426;28;20426;-59
2021/01/30 13:03:51;;;;;;;6.50;2.57;;;10.80;99.90;;;;;;5034649;28;20169;-60
2021/01/30 13:06:18;;;;;;;6.20;2.40;;;10.70;99.90;;;;;;5035992;28;20259;-58
2021/01/30 13:08:45;;;;;;;4.70;2.20;;;10.60;99.90;;;;;;5035138;28;20409;-61
2021/01/30 13:11:11;;;;;;;7.20;3.10;;;10.60;99.90;;;;;;5034868;28;20454;-58
2021/01/30 13:13:37;;;;;;;6.20;2.47;;;10.60;99.90;;;;;;5031322;28;20430;-64
2021/01/30 13:16:03;;;;;;;7.37;2.70;;;10.50;99.90;;;;;;5029100;28;20436;-57
2021/01/30 13:18:29;;;;;;;9.30;3.10;;;10.50;99.90;;;;;;5034383;28;20512;-56
2021/01/30 13:20:54;;;;;;;5.53;2.60;;;10.50;99.90;;;;;;5034659;28;20457;-60
2021/01/30 13:23:20;;;;;;;5.17;2.63;;;10.50;99.90;;;;;;5035436;28;20628;-61
2021/01/30 13:25:45;;;;;;;3.90;2.73;;;10.40;99.90;;;;;;5034311;28;20527;-58